ADDS METAR Data INFO
IDs: Format: Raw Decoded Include TAF

Data at: 1612 UTC 14 Aug 2018

KMYP 141549Z AUTO 10SM CLR 13/01 A3068 RMK AO2
KMYP 141532Z AUTO 10SM CLR 13/01 A3068 RMK AO2 LTG DSNT N
KMYP 141513Z AUTO 10SM CLR 12/00 A3067 RMK AO2
KMYP 141450Z AUTO 10SM CLR 12/01 A3067 RMK AO2
KMYP 141432Z AUTO 10SM CLR 11/00 A3066 RMK AO2
KMYP 141413Z AUTO 10SM CLR 11/01 A3066 RMK AO2
KMYP 141351Z AUTO 10SM CLR 11/00 A3066 RMK AO2
KMYP 141332Z AUTO 36007KT 10SM CLR 10/M01 A3065 RMK AO2
KMYP 141308Z AUTO 35010KT 10SM CLR 10/M01 A3065 RMK AO2
KMYP 141252Z AUTO 35009KT 10SM CLR 09/00 A3065 RMK AO2
KMYP 141228Z AUTO 34007KT 10SM CLR 08/00 A3064 RMK AO2
KMYP 141210Z AUTO 33008G15KT 10SM CLR 08/00 A3064 RMK AO2
KMYP 141152Z AUTO 34008KT 10SM CLR 08/00 A3064 RMK AO2
KMYP 141134Z AUTO 31011G17KT 10SM CLR 08/00 A3064 RMK AO2
KMYP 141128Z AUTO 29014G18KT 10SM CLR 08/00 A3064 RMK AO2
KMYP 141109Z AUTO 29014KT 10SM CLR 08/00 A3064 RMK AO2
KMYP 141049Z AUTO 29015KT 10SM CLR 08/00 A3064 RMK AO2
KMYP 141032Z AUTO 27013G16KT 10SM CLR 08/00 A3064 RMK AO2
KMYP 141014Z AUTO 26010G14KT 240V320 10SM CLR 08/00 A3064 RMK AO2
KMYP 141006Z AUTO 28010KT 250V310 10SM CLR 08/00 A3064 RMK AO2
KMYP 140953Z AUTO 27013KT 10SM CLR 09/00 A3064 RMK AO2
KMYP 140933Z AUTO 26012KT 10SM CLR 09/00 A3064 RMK AO2
KMYP 140913Z AUTO 36007KT 10SM CLR 10/00 A3065 RMK AO2 LTG DSNT NW
KMYP 140851Z AUTO 10SM SCT110 10/00 A3065 RMK AO2
KMYP 140831Z AUTO 04009KT 10SM SCT110 10/00 A3066 RMK AO2
KMYP 140812Z AUTO 10SM CLR 09/00 A3066 RMK AO2
KMYP 140754Z AUTO 10SM CLR 09/00 A3066 RMK AO2
KMYP 140748Z AUTO 10SM CLR 09/00 A3066 RMK AO2
KMYP 140729Z AUTO 10SM CLR 09/00 A3066 RMK AO2
KMYP 140708Z AUTO 10SM CLR 10/00 A3067 RMK AO2
KMYP 140649Z AUTO 10SM SCT100 10/00 A3067 RMK AO2 LTG DSNT E AND SE
KMYP 140627Z AUTO 05012KT 10SM BKN100 10/00 A3068 RMK AO2
KMYP 140612Z AUTO 10SM OVC100 10/00 A3069 RMK AO2
KMYP 140550Z AUTO 07018G21KT 10SM BKN100 10/00 A3069 RMK AO2
KMYP 140531Z AUTO 03016KT 10SM SCT090 10/00 A3069 RMK AO2
KMYP 140513Z AUTO 10SM BKN090 10/00 A3070 RMK AO2
KMYP 140448Z AUTO 35007KT 10SM SCT070 BKN090 09/00 A3070 RMK AO2 LTG DSNT E
KMYP 140430Z AUTO 33009KT 10SM SCT043 SCT050 BKN070 09/00 A3071 RMK AO2
KMYP 140412Z AUTO 02008KT 330V070 10SM SCT039 BKN050 OVC070 10/00 A3072 RMK AO2
KMYP 140354Z AUTO 10SM DZ SCT040 SCT050 OVC070 10/00 A3072 RMK AO2
KMYP 140347Z AUTO 10SM RA SCT040 BKN070 OVC080 11/M01 A3071 RMK AO2
KMYP 140328Z AUTO 10SM OVC080 12/M03 A3070 RMK AO2
KMYP 140300Z AUTO 10SM BKN090 BKN110 12/M03 A3069 RMK AO2
KMYP 140249Z AUTO 10SM SCT110 12/M03 A3068 RMK AO2
KMYP 140231Z AUTO 10SM OVC110 12/M03 A3067 RMK AO2
KMYP 140213Z AUTO 10SM BKN100 OVC110 12/M03 A3066 RMK AO2
KMYP 140149Z AUTO 10SM OVC100 12/M03 A3066 RMK AO2
KMYP 140131Z AUTO 10SM OVC090 13/M03 A3065 RMK AO2
KMYP 140112Z AUTO 10SM BKN090 13/M02 A3065 RMK AO2 LTG DSNT E
KMYP 140051Z AUTO 10SM SCT100 14/M02 A3064 RMK AO2 LTG DSNT E
KMYP 140032Z AUTO 10SM SCT110 15/M03 A3064 RMK AO2 LTG DSNT E
KMYP 140014Z AUTO 06012G20KT 10SM BKN100 15/M02 A3065 RMK AO2 LTG DSNT E
KMYP 140007Z AUTO 04012KT 10SM BKN100 15/M03 A3065 RMK AO2 LTG DSNT NE AND E
KMYP 132349Z AUTO 10SM SCT050 SCT070 BKN120 15/M02 A3065 RMK AO2
KMYP 132331Z AUTO 10SM SCT120 15/M03 A3064 RMK AO2 LTG DSNT NW
KMYP 132312Z AUTO 10SM CLR 15/M02 A3064 RMK AO2
KMYP 132250Z AUTO 10SM SCT060 15/M02 A3064 RMK AO2
KMYP 132231Z AUTO 10SM SCT060 BKN075 BKN090 14/M01 A3065 RMK AO2
KMYP 132213Z AUTO 10SM SCT041 SCT055 OVC075 14/M02 A3066 RMK AO2
KMYP 132151Z AUTO 10SM -RA SCT065 OVC075 15/M02 A3065 RMK AO2
KMYP 132132Z AUTO 10SM SCT075 BKN085 OVC100 15/00 A3064 RMK AO2 LTG DSNT SE
KMYP 132113Z AUTO 10SM SCT075 SCT090 BKN110 14/00 A3064 RMK AO2 LTG DSNT SE AND NW
KMYP 132052Z AUTO 10SM BKN090 15/01 A3065 RMK AO2 LTG DSNT SE AND S
KMYP 132033Z AUTO 10SM SCT055 BKN100 BKN120 13/00 A3066 RMK AO2 LTG DSNT S
KMYP 132014Z AUTO 10SM -RA SCT039 BKN065 OVC090 12/01 A3066 RMK AO2 LTG DSNT ALQS
KMYP 132008Z AUTO 10SM VCTSRA SCT039 BKN065 OVC090 13/01 A3065 RMK AO2 LTG DSNT ALQS
KMYP 131952Z AUTO 10SM SCT044 BKN065 BKN080 15/01 A3066 RMK AO2 LTG DSNT N AND SE
KMYP 131932Z AUTO 10SM -TSRA SCT050 BKN070 OVC075 13/01 A3067 RMK AO2 LTG DSNT E AND SE
KMYP 131913Z AUTO 10SM BKN075 OVC095 13/01 A3067 RMK AO2
KMYP 131852Z AUTO 10SM -RA SCT065 BKN080 BKN110 13/01 A3066 RMK AO2
KMYP 131834Z AUTO 10SM SCT043 SCT075 BKN095 13/02 A3066 RMK AO2
KMYP 131826Z AUTO 10SM SCT043 BKN075 OVC095 13/01 A3066 RMK AO2
KMYP 131808Z AUTO 10SM SCT075 BKN095 BKN120 13/01 A3066 RMK AO2
KMYP 131750Z AUTO 10SM SCT075 SCT095 13/01 A3066 RMK AO2
KMYP 131732Z AUTO 10SM SCT075 SCT085 14/01 A3066 RMK AO2
KMYP 131712Z AUTO 10SM CLR 13/01 A3066 RMK AO2
KMYP 131651Z AUTO 10SM CLR 13/01 A3065 RMK AO2
KMYP 131633Z AUTO 10SM CLR 12/01 A3065 RMK AO2
KMYP 131614Z AUTO 10SM CLR 12/01 A3065 RMK AO2
KMYP 131553Z AUTO 10SM CLR 11/00 A3066 RMK AO2
KMYP 131534Z AUTO 10SM CLR 10/00 A3065 RMK AO2
KMYP 131507Z AUTO 10SM CLR 10/00 A3065 RMK AO2
KMYP 131454Z AUTO 10SM CLR 09/00 A3065 RMK AO2
KMYP 131432Z AUTO 10SM CLR 08/00 A3065 RMK AO2
KMYP 131413Z AUTO 10SM CLR 09/M01 A3065 RMK AO2
KMYP 131348Z AUTO 31016G25KT 10SM CLR 10/M02 A3065 RMK AO2
KMYP 131330Z AUTO 29015G23KT 10SM CLR 08/M01 A3065 RMK AO2
KMYP 131312Z AUTO 29014G18KT 10SM CLR 08/M01 A3065 RMK AO2
KMYP 131252Z AUTO 25015G19KT 10SM CLR 08/M01 A3065 RMK AO2
KMYP 131232Z AUTO 27014G19KT 10SM CLR 08/M01 A3065 RMK AO2
KMYP 131208Z AUTO 31015G21KT 10SM CLR 09/M02 A3064 RMK AO2
KMYP 131152Z AUTO 30014G21KT 10SM CLR 09/M02 A3064 RMK AO2
KMYP 131134Z AUTO 30015G20KT 10SM CLR 09/M01 A3064 RMK AO2
KMYP 131110Z AUTO 28023G27KT 10SM CLR 08/M01 A3064 RMK AO2
KMYP 131051Z AUTO 27014G25KT 10SM CLR 08/M01 A3064 RMK AO2
KMYP 131028Z AUTO 28023G28KT 10SM CLR 08/M01 A3064 RMK AO2
KMYP 131006Z AUTO 28024G29KT 10SM CLR 08/M01 A3064 RMK AO2
KMYP 130952Z AUTO 28026KT 10SM CLR 08/M01 A3064 RMK AO2
KMYP 130933Z AUTO 27024KT 10SM CLR 08/00 A3065 RMK AO2
KMYP 130912Z AUTO 27022KT 10SM CLR 08/M01 A3065 RMK AO2
KMYP 130848Z AUTO 27022KT 10SM CLR 08/00 A3066 RMK AO2
KMYP 130834Z AUTO 26025KT 10SM CLR 08/00 A3066 RMK AO2
KMYP 130809Z AUTO 25016G24KT 10SM CLR 08/00 A3067 RMK AO2
KMYP 130753Z AUTO 25017KT 10SM CLR 08/00 A3067 RMK AO2
KMYP 130731Z AUTO 26018G21KT 10SM CLR 09/M01 A3069 RMK AO2
KMYP 130713Z AUTO 26014G20KT 10SM CLR 09/00 A3069 RMK AO2
KMYP 130654Z AUTO 25017KT 10SM CLR 08/00 A3069 RMK AO2
KMYP 130634Z AUTO 25016KT 10SM CLR 09/00 A3070 RMK AO2
KMYP 130614Z AUTO 26015G20KT 10SM CLR 09/00 A3070 RMK AO2
KMYP 130546Z AUTO 27008KT 10SM CLR 10/00 A3071 RMK AO2
KMYP 130534Z AUTO 28008G17KT 10SM CLR 09/00 A3071 RMK AO2
KMYP 130507Z AUTO 10SM CLR 08/02 A3072 RMK AO2
KMYP 130450Z AUTO 03007KT 10SM CLR 08/02 A3073 RMK AO2
KMYP 130432Z AUTO 05007G14KT 10SM CLR 08/01 A3073 RMK AO2